createdAt,value
2023-05-23T00:02:15.785Z,90.83
2023-05-23T00:04:43.074Z,91.15
2023-05-23T00:07:10.193Z,100.00
2023-05-23T00:09:36.860Z,100.00
2023-05-23T00:12:05.670Z,91.15
2023-05-23T00:14:34.008Z,92.69
2023-05-23T00:17:05.382Z,100.00
2023-05-23T00:19:32.306Z,92.50
2023-05-23T00:21:59.542Z,100.00
2023-05-23T00:24:27.221Z,100.00
2023-05-23T00:26:54.848Z,100.00
2023-05-23T00:29:21.661Z,92.76
2023-05-23T00:31:48.825Z,92.76
2023-05-23T00:34:19.883Z,100.00
2023-05-23T00:36:48.070Z,92.76
2023-05-23T00:39:19.806Z,92.76
2023-05-23T00:41:53.121Z,92.76
2023-05-23T00:44:21.714Z,92.76
2023-05-23T00:46:51.694Z,92.74
2023-05-23T00:49:20.402Z,92.35
2023-05-23T00:51:55.985Z,92.35
2023-05-23T00:54:29.623Z,92.35
2023-05-23T00:56:56.433Z,92.14
2023-05-23T00:59:24.702Z,92.14
2023-05-23T01:01:53.674Z,92.14
2023-05-23T01:04:20.663Z,92.14
2023-05-23T01:06:49.129Z,92.52
2023-05-23T01:09:17.387Z,92.52
2023-05-23T01:11:53.468Z,100.00
2023-05-23T01:14:27.244Z,92.52
2023-05-23T01:16:58.509Z,91.95
2023-05-23T01:19:45.458Z,92.25
2023-05-23T01:22:19.057Z,92.58
2023-05-23T01:24:55.105Z,92.58
2023-05-23T01:27:57.313Z,92.58
2023-05-23T01:30:25.523Z,93.23
2023-05-23T01:32:56.368Z,93.23
2023-05-23T01:35:29.026Z,93.23
2023-05-23T01:37:56.135Z,93.23
2023-05-23T01:40:24.829Z,91.99
2023-05-23T01:42:53.324Z,91.99
2023-05-23T01:45:21.526Z,100.00
2023-05-23T01:47:50.497Z,91.83
2023-05-23T01:50:20.909Z,91.83
2023-05-23T01:52:48.178Z,91.83
2023-05-23T01:55:22.551Z,91.83
2023-05-23T01:57:55.482Z,91.83
2023-05-23T02:00:22.503Z,91.95
2023-05-23T02:02:49.461Z,91.95
2023-05-23T02:05:23.304Z,91.95
2023-05-23T02:07:50.051Z,92.27
2023-05-23T02:10:17.624Z,92.57
2023-05-23T02:12:44.325Z,92.16
2023-05-23T02:15:13.125Z,92.16
2023-05-23T02:17:41.517Z,92.16
2023-05-23T02:20:08.968Z,91.81
2023-05-23T02:22:36.190Z,91.64
2023-05-23T02:25:03.719Z,91.64
2023-05-23T02:27:31.527Z,100.00
2023-05-23T02:29:58.415Z,92.10
2023-05-23T02:32:25.234Z,92.36
2023-05-23T02:34:52.660Z,92.36
2023-05-23T02:37:29.832Z,92.36
2023-05-23T02:39:56.852Z,91.94
2023-05-23T02:42:23.567Z,91.97
2023-05-23T02:44:50.426Z,91.97
2023-05-23T02:47:18.015Z,91.97
2023-05-23T02:49:44.742Z,92.51
2023-05-23T02:52:13.822Z,92.51
2023-05-23T02:54:41.098Z,92.17
2023-05-23T02:57:07.841Z,92.58
2023-05-23T02:59:37.160Z,92.33
2023-05-23T03:02:03.971Z,92.10
2023-05-23T03:04:30.755Z,92.02
2023-05-23T03:06:59.648Z,92.26
2023-05-23T03:09:26.928Z,92.26
2023-05-23T03:11:53.661Z,91.78
2023-05-23T03:14:20.357Z,91.75
2023-05-23T03:16:49.300Z,92.35
2023-05-23T03:19:16.314Z,92.35
2023-05-23T03:21:44.287Z,91.22
2023-05-23T03:24:11.797Z,91.00
2023-05-23T03:26:38.477Z,90.94
2023-05-23T03:29:07.230Z,90.94
2023-05-23T03:31:34.063Z,90.94
2023-05-23T03:34:02.545Z,90.94
2023-05-23T03:36:29.647Z,90.94
2023-05-23T03:38:56.343Z,90.94
2023-05-23T03:41:23.207Z,92.26
2023-05-23T03:43:50.225Z,91.98
2023-05-23T03:46:17.027Z,92.01
2023-05-23T03:48:43.991Z,92.01
2023-05-23T03:51:13.368Z,92.00
2023-05-23T03:53:40.939Z,91.93
2023-05-23T03:56:07.702Z,91.11
2023-05-23T03:58:34.504Z,91.44
2023-05-23T04:01:07.009Z,91.44
2023-05-23T04:03:33.995Z,90.95
2023-05-23T04:06:02.385Z,91.51
2023-05-23T04:08:33.883Z,91.83
2023-05-23T04:11:01.957Z,91.30
2023-05-23T04:13:31.915Z,91.67
2023-05-23T04:16:01.501Z,91.71
2023-05-23T04:18:28.538Z,91.58
2023-05-23T04:20:55.215Z,91.50
2023-05-23T04:23:21.922Z,91.12
2023-05-23T04:25:52.575Z,91.10
2023-05-23T04:28:26.703Z,90.52
2023-05-23T04:30:54.380Z,90.31
2023-05-23T04:33:25.037Z,90.44
2023-05-23T04:35:51.938Z,90.42
2023-05-23T04:38:19.357Z,90.42
2023-05-23T04:40:46.094Z,91.22
2023-05-23T04:43:16.408Z,100.00
2023-05-23T04:45:56.056Z,90.58
2023-05-23T04:48:31.425Z,91.04
2023-05-23T04:51:02.192Z,91.29
2023-05-23T04:53:29.610Z,91.10
2023-05-23T04:55:57.716Z,91.69
2023-05-23T04:58:24.580Z,92.00
2023-05-23T05:00:57.875Z,91.78
2023-05-23T05:03:25.152Z,91.78
2023-05-23T05:05:52.388Z,92.45
2023-05-23T05:08:20.126Z,92.32
2023-05-23T05:10:47.004Z,92.57
2023-05-23T05:13:15.072Z,92.51
2023-05-23T05:15:46.369Z,92.87
2023-05-23T05:18:14.650Z,92.70
2023-05-23T05:20:41.767Z,92.93
2023-05-23T05:23:09.911Z,92.89
2023-05-23T05:25:38.277Z,100.00
2023-05-23T05:28:06.000Z,92.24
2023-05-23T05:30:36.536Z,91.95
2023-05-23T05:33:04.506Z,92.08
2023-05-23T05:35:35.347Z,91.87
2023-05-23T05:38:04.884Z,100.00
2023-05-23T05:40:32.791Z,91.87
2023-05-23T05:43:00.038Z,91.32
2023-05-23T05:45:27.717Z,90.99
2023-05-23T05:47:54.659Z,90.40
2023-05-23T05:50:23.621Z,91.15
2023-05-23T05:52:50.572Z,90.82
2023-05-23T05:55:17.497Z,90.14
2023-05-23T05:57:48.135Z,89.61
2023-05-23T06:00:18.963Z,89.87
2023-05-23T06:02:51.546Z,88.97
2023-05-23T06:05:41.702Z,88.41
2023-05-23T06:08:08.530Z,88.69
2023-05-23T06:10:37.985Z,88.95
2023-05-23T06:13:04.875Z,89.29
2023-05-23T06:15:32.899Z,88.92
2023-05-23T06:18:00.308Z,88.82
2023-05-23T06:20:27.092Z,88.12
2023-05-23T06:22:54.938Z,87.71
2023-05-23T06:25:21.853Z,86.94
2023-05-23T06:27:50.036Z,86.83
2023-05-23T06:30:16.888Z,86.67
2023-05-23T06:32:45.475Z,86.63
2023-05-23T06:35:12.388Z,87.22
2023-05-23T06:37:43.433Z,87.06
2023-05-23T06:40:10.994Z,87.23
2023-05-23T06:42:37.634Z,86.96
2023-05-23T06:45:11.969Z,87.79
2023-05-23T06:47:43.840Z,87.81
2023-05-23T06:50:11.009Z,88.00
2023-05-23T06:52:37.843Z,88.33
2023-05-23T06:55:05.482Z,88.31
2023-05-23T06:57:38.035Z,88.31
2023-05-23T07:00:07.425Z,88.87
2023-05-23T07:02:51.950Z,88.87
2023-05-23T07:05:22.167Z,88.50
2023-05-23T07:07:50.934Z,89.45
2023-05-23T07:10:19.805Z,89.46
2023-05-23T07:12:48.531Z,89.29
2023-05-23T07:15:16.607Z,89.94
2023-05-23T07:17:54.666Z,90.79
2023-05-23T07:20:21.700Z,90.79
2023-05-23T07:22:51.745Z,90.36
2023-05-23T07:25:19.272Z,90.69
2023-05-23T07:27:46.033Z,90.24
2023-05-23T07:30:12.944Z,90.69
2023-05-23T07:32:40.262Z,90.38
2023-05-23T07:35:09.069Z,90.32
2023-05-23T07:37:35.806Z,100.00
2023-05-23T07:40:02.691Z,90.79
2023-05-23T07:42:29.470Z,91.42
2023-05-23T07:44:56.150Z,91.29
2023-05-23T07:47:24.441Z,90.66
2023-05-23T07:49:52.354Z,90.56
2023-05-23T07:52:20.935Z,90.56
2023-05-23T07:54:48.375Z,90.56
2023-05-23T07:57:16.946Z,91.13
2023-05-23T07:59:44.442Z,100.00
2023-05-23T08:02:11.655Z,89.49
2023-05-23T08:04:40.453Z,89.49
2023-05-23T08:07:08.895Z,89.13
2023-05-23T08:09:46.085Z,88.15
2023-05-23T08:12:15.957Z,88.18
2023-05-23T08:14:51.730Z,100.00
2023-05-23T08:17:42.435Z,88.32
2023-05-23T08:20:10.278Z,87.99
2023-05-23T08:22:37.584Z,88.64
2023-05-23T08:25:06.048Z,88.49
2023-05-23T08:27:36.812Z,87.39
2023-05-23T08:30:12.223Z,87.53
2023-05-23T08:32:39.074Z,87.78
2023-05-23T08:35:06.548Z,87.22
2023-05-23T08:37:33.259Z,87.33
2023-05-23T08:40:00.108Z,86.19
2023-05-23T08:42:43.487Z,86.08
2023-05-23T08:45:12.223Z,86.30
2023-05-23T08:47:42.451Z,86.30
2023-05-23T08:50:12.483Z,85.29
2023-05-23T08:52:45.123Z,84.39
2023-05-23T08:55:12.783Z,83.78
2023-05-23T08:57:43.785Z,83.45
2023-05-23T09:00:33.476Z,83.49
2023-05-23T09:03:00.682Z,84.45
2023-05-23T09:05:43.808Z,83.56
2023-05-23T09:08:10.775Z,83.39
2023-05-23T09:10:37.903Z,81.71
2023-05-23T09:13:06.317Z,80.55
2023-05-23T09:15:33.112Z,80.50
2023-05-23T09:18:02.206Z,80.74
2023-05-23T09:20:29.835Z,79.56
2023-05-23T09:23:02.913Z,78.76
2023-05-23T09:25:30.799Z,79.06
2023-05-23T09:28:00.098Z,78.76
2023-05-23T09:30:27.379Z,75.26
2023-05-23T09:33:05.730Z,74.99
2023-05-23T09:35:34.012Z,74.40
2023-05-23T09:38:01.030Z,73.52
2023-05-23T09:40:31.945Z,72.63
2023-05-23T09:43:04.960Z,71.00
2023-05-23T09:45:32.583Z,70.80
2023-05-23T09:48:01.720Z,71.82
2023-05-23T09:50:34.148Z,71.11
2023-05-23T09:53:02.408Z,72.31
2023-05-23T09:55:29.124Z,73.02
2023-05-23T09:57:58.659Z,73.38
2023-05-23T10:00:25.781Z,73.12
2023-05-23T10:03:03.474Z,71.96
2023-05-23T10:05:47.997Z,71.33
2023-05-23T10:08:18.316Z,71.78
2023-05-23T10:10:57.239Z,71.46
2023-05-23T10:13:28.630Z,69.92
2023-05-23T10:16:03.184Z,69.59
2023-05-23T10:18:30.344Z,69.36
2023-05-23T10:20:58.116Z,68.08
2023-05-23T10:23:24.986Z,67.32
2023-05-23T10:25:52.499Z,65.13
2023-05-23T10:28:20.166Z,64.79
2023-05-23T10:30:47.850Z,64.18
2023-05-23T10:33:16.901Z,62.88
2023-05-23T10:35:58.647Z,61.16
2023-05-23T10:38:46.047Z,61.02
2023-05-23T10:41:24.027Z,60.49
2023-05-23T10:44:12.646Z,60.96
2023-05-23T10:46:55.351Z,60.42
2023-05-23T10:49:22.768Z,60.27
2023-05-23T10:51:51.416Z,60.26
2023-05-23T10:54:20.377Z,59.33
2023-05-23T10:56:47.145Z,58.04
2023-05-23T10:59:24.197Z,58.90
2023-05-23T11:01:52.416Z,58.81
2023-05-23T11:04:28.463Z,60.68
2023-05-23T11:06:56.809Z,59.49
2023-05-23T11:09:23.759Z,59.14
2023-05-23T11:12:05.356Z,56.82
2023-05-23T11:14:38.309Z,59.26
2023-05-23T11:17:18.626Z,59.67
2023-05-23T11:20:05.549Z,58.91
2023-05-23T11:22:35.435Z,58.99
2023-05-23T11:25:07.243Z,57.48
2023-05-23T11:27:36.305Z,56.07
2023-05-23T11:30:10.045Z,56.78
2023-05-23T11:32:37.671Z,56.19
2023-05-23T11:35:06.325Z,56.00
2023-05-23T11:37:33.349Z,57.36
2023-05-23T11:40:02.058Z,56.96
2023-05-23T11:42:28.803Z,57.04
2023-05-23T11:44:55.540Z,58.70
2023-05-23T11:47:22.341Z,57.50
2023-05-23T11:49:49.064Z,59.47
2023-05-23T11:52:16.054Z,59.84
2023-05-23T11:54:43.511Z,59.19
2023-05-23T11:57:11.292Z,58.35
2023-05-23T11:59:38.657Z,57.29
2023-05-23T12:02:06.864Z,58.32
2023-05-23T12:04:35.769Z,55.77
2023-05-23T12:07:05.969Z,55.39
2023-05-23T12:09:33.027Z,55.20
2023-05-23T12:11:59.759Z,54.51
2023-05-23T12:14:29.097Z,54.93
2023-05-23T12:16:56.069Z,55.59
2023-05-23T12:19:22.950Z,54.76
2023-05-23T12:21:49.834Z,56.04
2023-05-23T12:24:21.315Z,53.49
2023-05-23T12:26:48.636Z,52.89
2023-05-23T12:29:16.370Z,52.19
2023-05-23T12:31:43.357Z,54.26
2023-05-23T12:34:11.587Z,54.65
2023-05-23T12:36:47.893Z,53.91
2023-05-23T12:39:16.224Z,55.29
2023-05-23T12:41:44.260Z,56.11
2023-05-23T12:44:11.599Z,58.97
2023-05-23T12:46:38.309Z,58.79
2023-05-23T12:49:05.855Z,60.73
2023-05-23T12:51:32.568Z,59.78
2023-05-23T12:53:59.592Z,60.11
2023-05-23T12:56:26.685Z,60.57
2023-05-23T12:58:57.140Z,60.59
2023-05-23T13:01:24.515Z,60.78
2023-05-23T13:03:51.249Z,60.75
2023-05-23T13:06:17.998Z,58.75
2023-05-23T13:08:44.722Z,58.30
2023-05-23T13:11:11.520Z,58.86
2023-05-23T13:13:38.809Z,56.96
2023-05-23T13:16:06.003Z,57.47
2023-05-23T13:18:32.646Z,56.88
2023-05-23T13:20:59.386Z,58.46
2023-05-23T13:23:26.437Z,57.12
2023-05-23T13:25:53.287Z,57.90
2023-05-23T13:28:20.084Z,57.29
2023-05-23T13:30:47.430Z,58.22
2023-05-23T13:33:14.520Z,58.02
2023-05-23T13:35:41.617Z,58.08
2023-05-23T13:38:08.672Z,59.07
2023-05-23T13:40:35.410Z,58.38
2023-05-23T13:43:02.057Z,59.21
2023-05-23T13:45:30.176Z,59.57
2023-05-23T13:47:56.869Z,58.70
2023-05-23T13:50:23.668Z,57.46
2023-05-23T13:52:50.410Z,57.94
2023-05-23T13:55:18.603Z,58.35
2023-05-23T13:57:45.989Z,58.40
2023-05-23T14:00:13.274Z,56.91
2023-05-23T14:02:40.030Z,55.89
2023-05-23T14:05:08.167Z,54.33
2023-05-23T14:07:34.937Z,56.29
2023-05-23T14:10:01.780Z,54.78
2023-05-23T14:12:28.446Z,54.88
2023-05-23T14:14:55.193Z,55.67
2023-05-23T14:17:21.879Z,55.92
2023-05-23T14:19:48.841Z,56.93
2023-05-23T14:22:15.533Z,57.92
2023-05-23T14:24:42.530Z,56.83
2023-05-23T14:27:11.094Z,56.39
2023-05-23T14:29:38.647Z,56.88
2023-05-23T14:32:05.727Z,57.29
2023-05-23T14:34:32.670Z,58.96
2023-05-23T14:36:59.422Z,58.36
2023-05-23T14:39:26.170Z,58.12
2023-05-23T14:41:52.997Z,58.61
2023-05-23T14:44:19.921Z,57.56
2023-05-23T14:46:50.251Z,56.61
2023-05-23T14:49:19.869Z,57.54
2023-05-23T14:51:50.357Z,56.63
2023-05-23T14:54:18.302Z,55.72
2023-05-23T14:56:45.087Z,57.82
2023-05-23T14:59:11.916Z,55.89
2023-05-23T15:01:40.382Z,56.39
2023-05-23T15:04:09.288Z,56.02
2023-05-23T15:06:36.346Z,56.10
2023-05-23T15:09:03.406Z,55.60
2023-05-23T15:11:30.174Z,54.02
2023-05-23T15:13:56.951Z,52.35
2023-05-23T15:16:23.758Z,51.21
2023-05-23T15:18:50.573Z,51.25
2023-05-23T15:21:17.348Z,53.53
2023-05-23T15:23:44.013Z,52.71
2023-05-23T15:26:10.809Z,53.34
2023-05-23T15:28:37.473Z,53.72
2023-05-23T15:31:04.558Z,54.18
2023-05-23T15:33:31.268Z,53.19
2023-05-23T15:35:59.434Z,53.15
2023-05-23T15:38:26.198Z,52.40
2023-05-23T15:40:54.734Z,52.10
2023-05-23T15:43:21.428Z,51.22
2023-05-23T15:45:49.869Z,51.51
2023-05-23T15:48:16.795Z,50.92
2023-05-23T15:50:44.146Z,51.10
2023-05-23T15:53:11.127Z,49.45
2023-05-23T15:55:41.272Z,48.55
2023-05-23T15:58:09.601Z,47.63
2023-05-23T16:00:36.450Z,48.89
2023-05-23T16:03:03.489Z,50.64
2023-05-23T16:05:30.310Z,52.66
2023-05-23T16:07:57.185Z,53.14
2023-05-23T16:10:24.784Z,54.18
2023-05-23T16:12:51.753Z,53.70
2023-05-23T16:15:18.786Z,53.88
2023-05-23T16:17:45.941Z,54.14
2023-05-23T16:20:12.860Z,54.59
2023-05-23T16:22:40.626Z,54.07
2023-05-23T16:25:09.254Z,54.07
2023-05-23T16:27:35.980Z,54.71
2023-05-23T16:30:02.929Z,53.72
2023-05-23T16:32:29.689Z,54.22
2023-05-23T16:34:56.425Z,54.77
2023-05-23T16:37:23.577Z,54.65
2023-05-23T16:39:50.450Z,54.38
2023-05-23T16:42:17.978Z,52.49
2023-05-23T16:44:45.295Z,52.44
2023-05-23T16:47:12.119Z,52.61
2023-05-23T16:49:38.954Z,53.11
2023-05-23T16:52:05.945Z,53.27
2023-05-23T16:54:32.696Z,54.88
2023-05-23T16:57:01.831Z,54.85
2023-05-23T16:59:29.878Z,54.98
2023-05-23T17:01:57.020Z,51.98
2023-05-23T17:04:24.002Z,48.72
2023-05-23T17:06:50.833Z,46.55
2023-05-23T17:09:18.287Z,44.35
2023-05-23T17:11:45.262Z,42.19
2023-05-23T17:14:12.814Z,42.25
2023-05-23T17:16:39.617Z,41.00
2023-05-23T17:19:07.557Z,42.89
2023-05-23T17:21:34.316Z,42.94
2023-05-23T17:24:01.077Z,43.39
2023-05-23T17:26:27.835Z,44.39
2023-05-23T17:28:54.526Z,47.11
2023-05-23T17:31:21.475Z,47.30
2023-05-23T17:33:48.183Z,49.54
2023-05-23T17:36:14.972Z,50.03
2023-05-23T17:38:41.977Z,51.45
2023-05-23T17:41:08.731Z,52.30
2023-05-23T17:43:35.355Z,52.95
2023-05-23T17:46:02.124Z,53.58
2023-05-23T17:48:45.839Z,54.59
2023-05-23T17:51:14.440Z,56.69
2023-05-23T17:53:41.639Z,56.88
2023-05-23T17:56:09.418Z,58.04
2023-05-23T17:58:37.525Z,58.96
2023-05-23T18:01:04.950Z,59.24
2023-05-23T18:03:32.180Z,60.26
2023-05-23T18:05:58.895Z,61.47
2023-05-23T18:08:25.749Z,61.44
2023-05-23T18:10:52.591Z,61.93
2023-05-23T18:13:19.320Z,61.41
2023-05-23T18:15:46.028Z,61.37
2023-05-23T18:18:12.888Z,62.01
2023-05-23T18:20:40.143Z,62.26
2023-05-23T18:23:07.482Z,62.77
2023-05-23T18:25:34.365Z,62.29
2023-05-23T18:28:01.977Z,60.03
2023-05-23T18:30:28.924Z,61.18
2023-05-23T18:32:56.220Z,60.30
2023-05-23T18:35:23.220Z,61.15
2023-05-23T18:37:49.988Z,61.50
2023-05-23T18:40:16.790Z,61.94
2023-05-23T18:42:43.609Z,62.44
2023-05-23T18:45:10.756Z,62.86
2023-05-23T18:47:37.746Z,63.74
2023-05-23T18:50:04.696Z,64.92
2023-05-23T18:52:33.542Z,65.72
2023-05-23T18:55:00.474Z,67.63
2023-05-23T18:57:27.233Z,67.77
2023-05-23T18:59:54.173Z,68.49
2023-05-23T19:02:20.923Z,70.01
2023-05-23T19:04:47.801Z,70.86
2023-05-23T19:07:14.646Z,71.39
2023-05-23T19:09:41.392Z,73.20
2023-05-23T19:12:08.173Z,72.63
2023-05-23T19:14:34.900Z,73.89
2023-05-23T19:17:05.613Z,73.98
2023-05-23T19:19:35.178Z,74.98
2023-05-23T19:22:01.922Z,75.39
2023-05-23T19:24:28.606Z,75.83
2023-05-23T19:26:56.251Z,76.14
2023-05-23T19:29:22.986Z,76.21
2023-05-23T19:31:49.867Z,76.03
2023-05-23T19:34:16.700Z,76.70
2023-05-23T19:36:44.160Z,76.79
2023-05-23T19:39:12.445Z,76.60
2023-05-23T19:41:40.697Z,76.93
2023-05-23T19:44:07.610Z,77.79
2023-05-23T19:46:34.407Z,78.00
2023-05-23T19:49:01.497Z,78.46
2023-05-23T19:51:29.068Z,78.96
2023-05-23T19:53:55.876Z,78.90
2023-05-23T19:56:22.950Z,79.26
2023-05-23T19:58:49.635Z,79.62
2023-05-23T20:01:16.461Z,80.02
2023-05-23T20:03:43.317Z,80.05
2023-05-23T20:06:10.176Z,80.14
2023-05-23T20:08:36.916Z,80.84
2023-05-23T20:11:03.636Z,80.81
2023-05-23T20:13:30.493Z,81.06
2023-05-23T20:15:57.305Z,81.35
2023-05-23T20:18:24.054Z,81.00
2023-05-23T20:20:50.917Z,81.76
2023-05-23T20:23:17.686Z,81.81
2023-05-23T20:25:44.387Z,81.60
2023-05-23T20:28:11.125Z,82.35
2023-05-23T20:30:37.720Z,82.54
2023-05-23T20:33:04.660Z,83.05
2023-05-23T20:35:31.322Z,83.45
2023-05-23T20:37:58.592Z,83.01
2023-05-23T20:40:26.957Z,83.22
2023-05-23T20:42:53.736Z,83.47
2023-05-23T20:45:20.489Z,83.36
2023-05-23T20:47:47.455Z,83.08
2023-05-23T20:50:14.958Z,84.03
2023-05-23T20:52:43.067Z,84.40
2023-05-23T20:55:10.852Z,84.48
2023-05-23T20:57:37.910Z,84.44
2023-05-23T21:00:12.705Z,84.22
2023-05-23T21:02:40.869Z,84.19
2023-05-23T21:05:08.702Z,83.95
2023-05-23T21:07:35.546Z,84.29
2023-05-23T21:10:03.307Z,84.03
2023-05-23T21:12:30.097Z,84.24
2023-05-23T21:14:57.106Z,82.49
2023-05-23T21:17:24.064Z,82.29
2023-05-23T21:19:51.149Z,82.40
2023-05-23T21:22:17.925Z,82.41
2023-05-23T21:24:44.555Z,82.21
2023-05-23T21:27:11.731Z,82.03
2023-05-23T21:29:38.402Z,82.72
2023-05-23T21:32:05.348Z,82.51
2023-05-23T21:34:32.060Z,82.42
2023-05-23T21:36:58.737Z,83.57
2023-05-23T21:39:28.780Z,82.21
2023-05-23T21:42:00.445Z,81.16
2023-05-23T21:44:27.105Z,81.27
2023-05-23T21:46:53.843Z,81.11
2023-05-23T21:49:20.618Z,81.69
2023-05-23T21:51:47.410Z,82.03
2023-05-23T21:54:14.132Z,83.18
2023-05-23T21:56:41.145Z,83.63
2023-05-23T21:59:08.213Z,83.80
2023-05-23T22:01:35.121Z,83.96
2023-05-23T22:04:02.015Z,84.16
2023-05-23T22:06:29.109Z,84.06
2023-05-23T22:08:55.931Z,84.09
2023-05-23T22:11:22.681Z,84.50
2023-05-23T22:13:49.485Z,84.30
2023-05-23T22:16:16.245Z,100.00
2023-05-23T22:18:51.602Z,84.01
2023-05-23T22:21:18.968Z,84.48
2023-05-23T22:23:45.999Z,84.42
2023-05-23T22:26:12.862Z,84.38
2023-05-23T22:28:39.701Z,83.53
2023-05-23T22:31:06.681Z,84.09
2023-05-23T22:33:33.432Z,84.09
2023-05-23T22:36:00.192Z,83.75
2023-05-23T22:38:26.892Z,83.82
2023-05-23T22:40:53.700Z,84.16
2023-05-23T22:43:21.878Z,83.69
2023-05-23T22:45:50.221Z,83.81
2023-05-23T22:48:19.299Z,83.81
2023-05-23T22:50:46.763Z,83.61
2023-05-23T22:53:16.663Z,84.00
2023-05-23T22:55:43.510Z,83.99
2023-05-23T22:58:10.477Z,83.99
2023-05-23T23:00:37.474Z,84.08
2023-05-23T23:03:04.559Z,84.37
2023-05-23T23:05:31.559Z,84.14
2023-05-23T23:07:58.244Z,84.42
2023-05-23T23:10:25.096Z,84.45
2023-05-23T23:12:51.764Z,84.58
2023-05-23T23:15:18.537Z,84.66
2023-05-23T23:17:45.242Z,84.96
2023-05-23T23:20:12.891Z,85.08
2023-05-23T23:22:39.911Z,85.26
2023-05-23T23:25:10.581Z,85.25
2023-05-23T23:27:37.593Z,85.60
2023-05-23T23:30:06.613Z,86.14
2023-05-23T23:32:34.312Z,85.81
2023-05-23T23:35:01.508Z,85.20
2023-05-23T23:37:28.241Z,85.65
2023-05-23T23:39:55.016Z,85.75
2023-05-23T23:42:21.715Z,85.36
2023-05-23T23:44:48.588Z,85.68
2023-05-23T23:47:15.417Z,85.67
2023-05-23T23:49:42.353Z,85.29
2023-05-23T23:52:09.433Z,85.48
2023-05-23T23:54:36.174Z,85.91
2023-05-23T23:57:02.928Z,85.84
2023-05-23T23:59:29.670Z,85.92
